Hilly, Louisiana
Current Conditions -  °F | °C
As of 6:35 PM on Sunday 21 Dec 2014 (Local Time) from KRSN Reporting Station
Broken Clouds Broken Clouds  
Wind Chill: 52°   Ceiling: 3200
Heat Index: 52°   Visibility: 10mi
Dew Point: 46°   Wind: 0mph
Humidity: 80%   Direction: NA
Pressure: 29.98"   Gusts: NA
Location:  32.6988°N, 92.6981°W
Report Text: KRSN 220035Z AUTO 00000KT 10SM BKN032 BKN085 11/08 A2998 RMK AO2 T01100077
Loading
Personal Weather Stations






























Interactive Weather Map New forecast layout! Learn more

10-Day Weather Forecast

Advertisements
Track Severe Weather on mobile